createdAt,value
2018-12-03T00:01:29.469Z,1.63
2018-12-03T00:04:15.345Z,1.60
2018-12-03T00:06:45.748Z,1.97
2018-12-03T00:09:14.913Z,2.80
2018-12-03T00:11:44.040Z,2.17
2018-12-03T00:14:13.860Z,4.13
2018-12-03T00:16:43.096Z,2.40
2018-12-03T00:19:12.835Z,1.80
2018-12-03T00:21:42.012Z,1.40
2018-12-03T00:24:11.183Z,2.70
2018-12-03T00:26:40.512Z,1.73
2018-12-03T00:29:10.131Z,2.20
2018-12-03T00:31:39.215Z,1.67
2018-12-03T00:34:08.476Z,1.70
2018-12-03T00:36:37.654Z,3.30
2018-12-03T00:39:08.805Z,1.83
2018-12-03T00:41:38.165Z,2.70
2018-12-03T00:44:07.880Z,1.70
2018-12-03T00:46:37.055Z,1.40
2018-12-03T00:49:06.216Z,4.67
2018-12-03T00:51:35.329Z,1.60
2018-12-03T00:54:04.456Z,2.17
2018-12-03T00:56:33.629Z,1.53
2018-12-03T00:59:02.952Z,1.77
2018-12-03T01:01:36.073Z,1.57
2018-12-03T01:04:06.408Z,1.50
2018-12-03T01:06:36.447Z,1.83
2018-12-03T01:09:08.915Z,1.30
2018-12-03T01:11:38.474Z,1.90
2018-12-03T01:14:07.612Z,1.97
2018-12-03T01:16:36.791Z,1.50
2018-12-03T01:19:05.998Z,1.30
2018-12-03T01:21:35.115Z,1.30
2018-12-03T01:24:04.363Z,1.80
2018-12-03T01:26:33.561Z,1.33
2018-12-03T01:29:03.074Z,1.70
2018-12-03T01:31:32.293Z,2.00
2018-12-03T01:34:02.194Z,1.60
2018-12-03T01:36:31.707Z,1.40
2018-12-03T01:39:00.893Z,1.30
2018-12-03T01:41:30.098Z,2.20
2018-12-03T01:43:59.445Z,1.90
2018-12-03T01:46:28.888Z,4.60
2018-12-03T01:48:58.074Z,1.50
2018-12-03T01:51:27.255Z,1.60
2018-12-03T01:53:56.485Z,2.47
2018-12-03T01:56:25.911Z,1.57
2018-12-03T01:58:55.740Z,2.03
2018-12-03T02:01:24.944Z,1.40
2018-12-03T02:03:54.239Z,8.40
2018-12-03T02:06:23.573Z,2.23
2018-12-03T02:08:52.900Z,1.47
2018-12-03T02:11:22.280Z,1.40
2018-12-03T02:13:51.524Z,1.40
2018-12-03T02:16:20.902Z,1.60
2018-12-03T02:18:50.036Z,1.50
2018-12-03T02:21:19.179Z,1.70
2018-12-03T02:23:48.445Z,1.60
2018-12-03T02:26:17.591Z,2.17
2018-12-03T02:28:46.738Z,1.40
2018-12-03T02:31:16.177Z,1.63
2018-12-03T02:33:45.334Z,1.50
2018-12-03T02:36:14.493Z,1.60
2018-12-03T02:38:43.808Z,1.40
2018-12-03T02:41:13.494Z,1.73
2018-12-03T02:43:42.634Z,3.63
2018-12-03T02:46:11.772Z,1.50
2018-12-03T02:48:41.098Z,1.97
2018-12-03T02:51:10.230Z,1.30
2018-12-03T02:53:39.914Z,3.97
2018-12-03T02:56:09.054Z,1.57
2018-12-03T02:58:38.336Z,1.67
2018-12-03T03:01:08.158Z,2.27
2018-12-03T03:03:39.836Z,1.40
2018-12-03T03:06:10.705Z,1.40
2018-12-03T03:08:41.338Z,1.63
2018-12-03T03:11:12.500Z,1.47
2018-12-03T03:13:42.555Z,1.30
2018-12-03T03:16:11.845Z,1.53
2018-12-03T03:18:41.344Z,2.33
2018-12-03T03:21:11.370Z,1.40
2018-12-03T03:23:40.552Z,2.17
2018-12-03T03:26:09.826Z,4.03
2018-12-03T03:28:40.056Z,1.40
2018-12-03T03:31:09.306Z,1.63
2018-12-03T03:33:38.585Z,1.60
2018-12-03T03:36:08.304Z,1.40
2018-12-03T03:38:37.483Z,2.10
2018-12-03T03:41:06.639Z,1.77
2018-12-03T03:43:35.969Z,2.20
2018-12-03T03:46:05.616Z,1.60
2018-12-03T03:48:42.838Z,1.47
2018-12-03T03:51:12.863Z,1.40
2018-12-03T03:53:42.204Z,1.60
2018-12-03T03:56:11.430Z,1.50
2018-12-03T03:58:40.920Z,4.13
2018-12-03T04:01:10.208Z,5.30
2018-12-03T04:03:39.390Z,1.97
2018-12-03T04:06:08.907Z,2.53
2018-12-03T04:08:38.060Z,1.83
2018-12-03T04:11:07.965Z,2.03
2018-12-03T04:13:37.140Z,1.50
2018-12-03T04:16:06.540Z,1.70
2018-12-03T04:18:36.013Z,1.43
2018-12-03T04:21:06.761Z,1.40
2018-12-03T04:23:35.920Z,1.60
2018-12-03T04:26:05.874Z,1.30
2018-12-03T04:28:35.850Z,1.50
2018-12-03T04:31:05.220Z,2.33
2018-12-03T04:33:34.679Z,1.30
2018-12-03T04:36:03.912Z,1.77
2018-12-03T04:38:33.836Z,1.30
2018-12-03T04:41:03.076Z,4.77
2018-12-03T04:43:32.456Z,2.53
2018-12-03T04:46:01.761Z,2.23
2018-12-03T04:48:31.029Z,2.30
2018-12-03T04:51:00.265Z,1.50
2018-12-03T04:53:29.809Z,1.80
2018-12-03T04:55:58.965Z,2.93
2018-12-03T04:58:28.215Z,5.60
2018-12-03T05:00:57.365Z,1.50
2018-12-03T05:03:26.545Z,1.40
2018-12-03T05:05:55.704Z,3.40
2018-12-03T05:08:24.951Z,1.40
2018-12-03T05:10:54.287Z,2.10
2018-12-03T05:13:25.628Z,1.50
2018-12-03T05:15:54.799Z,1.90
2018-12-03T05:18:24.002Z,1.90
2018-12-03T05:20:53.176Z,1.87
2018-12-03T05:23:22.382Z,2.57
2018-12-03T05:25:51.577Z,1.70
2018-12-03T05:28:20.929Z,1.70
2018-12-03T05:30:50.189Z,2.47
2018-12-03T05:33:19.373Z,2.60
2018-12-03T05:35:48.693Z,4.00
2018-12-03T05:38:17.923Z,2.53
2018-12-03T05:40:47.124Z,2.13
2018-12-03T05:43:16.298Z,2.50
2018-12-03T05:45:45.462Z,1.77
2018-12-03T05:48:15.007Z,2.73
2018-12-03T05:50:44.177Z,3.90
2018-12-03T05:53:13.320Z,4.23
2018-12-03T05:55:42.485Z,2.17
2018-12-03T05:58:11.647Z,2.00
2018-12-03T06:00:40.810Z,1.97
2018-12-03T06:03:09.949Z,2.83
2018-12-03T06:05:39.161Z,1.77
2018-12-03T06:08:08.380Z,1.60
2018-12-03T06:10:37.712Z,2.17
2018-12-03T06:13:07.592Z,1.47
2018-12-03T06:15:36.777Z,1.47
2018-12-03T06:18:06.376Z,1.50
2018-12-03T06:20:35.633Z,2.23
2018-12-03T06:23:04.796Z,1.53
2018-12-03T06:25:34.731Z,1.70
2018-12-03T06:28:03.868Z,2.80
2018-12-03T06:30:33.098Z,1.90
2018-12-03T06:33:02.317Z,2.00
2018-12-03T06:35:32.664Z,2.10
2018-12-03T06:38:02.745Z,1.87
2018-12-03T06:40:32.999Z,2.00
2018-12-03T06:43:02.520Z,1.57
2018-12-03T06:45:31.800Z,1.80
2018-12-03T06:48:09.577Z,2.13
2018-12-03T06:50:39.077Z,1.83
2018-12-03T06:53:08.276Z,1.30
2018-12-03T06:55:37.496Z,2.10
2018-12-03T06:58:07.481Z,2.10
2018-12-03T07:00:36.750Z,2.00
2018-12-03T07:03:06.644Z,1.60
2018-12-03T07:05:35.855Z,4.03
2018-12-03T07:08:06.777Z,1.83
2018-12-03T07:10:35.969Z,2.10
2018-12-03T07:13:10.464Z,5.97
2018-12-03T07:15:42.249Z,2.10
2018-12-03T07:18:12.391Z,4.07
2018-12-03T07:20:41.636Z,7.00
2018-12-03T07:23:10.877Z,7.80
2018-12-03T07:25:40.108Z,4.97
2018-12-03T07:28:09.924Z,4.83
2018-12-03T07:30:39.919Z,4.50
2018-12-03T07:33:09.833Z,2.20
2018-12-03T07:35:38.989Z,2.37
2018-12-03T07:38:08.815Z,3.10
2018-12-03T07:40:38.043Z,11.03
2018-12-03T07:43:07.795Z,4.83
2018-12-03T07:45:37.732Z,3.33
2018-12-03T07:48:06.927Z,2.87
2018-12-03T07:50:36.357Z,3.93
2018-12-03T07:53:06.307Z,2.90
2018-12-03T07:55:35.504Z,1.80
2018-12-03T07:58:13.445Z,2.10
2018-12-03T08:00:47.041Z,1.87
2018-12-03T08:03:16.528Z,2.00
2018-12-03T08:05:45.975Z,2.37
2018-12-03T08:08:15.165Z,4.03
2018-12-03T08:10:49.923Z,2.10
2018-12-03T08:13:20.549Z,1.60
2018-12-03T08:15:49.753Z,2.00
2018-12-03T08:18:22.239Z,5.37
2018-12-03T08:20:57.819Z,2.30
2018-12-03T08:23:36.729Z,2.07
2018-12-03T08:26:08.863Z,3.10
2018-12-03T08:28:38.199Z,3.40
2018-12-03T08:31:07.612Z,2.50
2018-12-03T08:33:37.266Z,1.93
2018-12-03T08:36:08.721Z,2.73
2018-12-03T08:38:39.298Z,1.60
2018-12-03T08:41:08.254Z,1.93
2018-12-03T08:43:37.481Z,6.73
2018-12-03T08:46:09.350Z,2.47
2018-12-03T08:48:41.592Z,2.20
2018-12-03T08:51:12.641Z,2.30
2018-12-03T08:53:45.470Z,2.17
2018-12-03T08:56:14.756Z,2.33
2018-12-03T08:58:44.481Z,3.50
2018-12-03T09:01:17.568Z,3.07
2018-12-03T09:04:00.378Z,6.20
2018-12-03T09:06:29.572Z,3.23
2018-12-03T09:08:58.748Z,3.10
2018-12-03T09:11:27.944Z,3.10
2018-12-03T09:13:57.101Z,2.20
2018-12-03T09:16:26.277Z,2.10
2018-12-03T09:18:56.113Z,6.80
2018-12-03T09:21:25.314Z,2.00
2018-12-03T09:23:59.253Z,2.00
2018-12-03T09:26:28.625Z,2.60
2018-12-03T09:28:58.273Z,5.10
2018-12-03T09:31:27.440Z,5.23
2018-12-03T09:33:59.964Z,6.50
2018-12-03T09:36:30.468Z,1.83
2018-12-03T09:39:10.879Z,2.27
2018-12-03T09:41:40.923Z,2.50
2018-12-03T09:44:10.197Z,2.00
2018-12-03T09:46:39.516Z,1.70
2018-12-03T09:49:09.637Z,1.77
2018-12-03T09:51:38.979Z,1.70
2018-12-03T09:54:11.043Z,2.23
2018-12-03T09:56:44.787Z,1.70
2018-12-03T09:59:21.285Z,2.80
2018-12-03T10:01:53.907Z,2.23
2018-12-03T10:04:35.417Z,4.00
2018-12-03T10:07:04.732Z,3.50
2018-12-03T10:09:39.183Z,2.30
2018-12-03T10:12:10.293Z,3.10
2018-12-03T10:14:39.533Z,2.27
2018-12-03T10:17:08.700Z,2.47
2018-12-03T10:19:37.976Z,3.93
2018-12-03T10:22:08.490Z,2.77
2018-12-03T10:24:38.872Z,3.00
2018-12-03T10:27:12.799Z,2.60
2018-12-03T10:29:43.072Z,3.40
2018-12-03T10:32:17.704Z,2.97
2018-12-03T10:34:47.195Z,2.70
2018-12-03T10:37:18.445Z,1.80
2018-12-03T10:39:47.646Z,2.53
2018-12-03T10:42:18.680Z,3.40
2018-12-03T10:44:48.527Z,2.53
2018-12-03T10:47:18.074Z,3.90
2018-12-03T10:49:47.304Z,2.50
2018-12-03T10:52:22.035Z,2.37
2018-12-03T10:54:51.710Z,2.60
2018-12-03T10:57:22.385Z,2.00
2018-12-03T10:59:54.464Z,9.07
2018-12-03T11:02:39.652Z,2.10
2018-12-03T11:05:14.779Z,3.00
2018-12-03T11:07:44.110Z,3.63
2018-12-03T11:10:13.301Z,2.77
2018-12-03T11:12:43.671Z,3.70
2018-12-03T11:15:15.288Z,3.30
2018-12-03T11:17:45.092Z,2.37
2018-12-03T11:20:14.473Z,4.60
2018-12-03T11:22:45.218Z,3.17
2018-12-03T11:25:17.074Z,3.10
2018-12-03T11:27:50.171Z,2.70
2018-12-03T11:30:19.360Z,4.20
2018-12-03T11:32:48.524Z,2.07
2018-12-03T11:35:24.117Z,1.70
2018-12-03T11:37:58.673Z,2.17
2018-12-03T11:40:39.925Z,2.47
2018-12-03T11:43:15.671Z,2.00
2018-12-03T11:45:45.056Z,2.77
2018-12-03T11:48:15.085Z,2.27
2018-12-03T11:50:44.865Z,1.93
2018-12-03T11:53:14.033Z,1.90
2018-12-03T11:55:43.286Z,1.90
2018-12-03T11:58:12.508Z,2.27
2018-12-03T12:00:42.121Z,3.20
2018-12-03T12:03:11.380Z,2.37
2018-12-03T12:05:40.599Z,1.87
2018-12-03T12:08:10.213Z,1.93
2018-12-03T12:10:39.437Z,1.70
2018-12-03T12:13:08.682Z,1.80
2018-12-03T12:15:37.969Z,2.20
2018-12-03T12:18:08.217Z,3.67
2018-12-03T12:20:37.436Z,4.03
2018-12-03T12:23:07.443Z,2.10
2018-12-03T12:25:37.089Z,2.00
2018-12-03T12:28:07.488Z,2.77
2018-12-03T12:30:36.969Z,2.20
2018-12-03T12:33:07.306Z,3.60
2018-12-03T12:35:37.633Z,2.03
2018-12-03T12:38:06.936Z,1.80
2018-12-03T12:40:36.160Z,2.43
2018-12-03T12:43:05.815Z,2.70
2018-12-03T12:45:47.289Z,5.50
2018-12-03T12:48:17.013Z,3.17
2018-12-03T12:50:46.268Z,2.00
2018-12-03T12:53:15.552Z,1.90
2018-12-03T12:55:45.217Z,2.13
2018-12-03T12:58:14.421Z,3.23
2018-12-03T13:00:43.654Z,2.33
2018-12-03T13:03:13.332Z,4.63
2018-12-03T13:05:42.546Z,2.60
2018-12-03T13:08:11.789Z,1.83
2018-12-03T13:10:40.981Z,3.90
2018-12-03T13:13:10.446Z,2.97
2018-12-03T13:15:39.642Z,2.23
2018-12-03T13:18:09.596Z,3.03
2018-12-03T13:20:38.744Z,3.23
2018-12-03T13:23:08.645Z,5.83
2018-12-03T13:25:38.247Z,4.47
2018-12-03T13:28:07.629Z,7.17
2018-12-03T13:30:36.764Z,5.20
2018-12-03T13:33:07.357Z,6.70
2018-12-03T13:35:36.505Z,3.10
2018-12-03T13:38:05.978Z,4.43
2018-12-03T13:40:36.027Z,4.77
2018-12-03T13:43:05.676Z,4.40
2018-12-03T13:45:35.060Z,3.90
2018-12-03T13:48:04.253Z,3.13
2018-12-03T13:50:33.448Z,1.93
2018-12-03T13:53:03.537Z,3.50
2018-12-03T13:55:33.365Z,2.73
2018-12-03T13:58:03.348Z,3.00
2018-12-03T14:00:33.164Z,3.50
2018-12-03T14:03:12.860Z,5.87
2018-12-03T14:05:55.509Z,3.43
2018-12-03T14:10:50.043Z,3.33
2018-12-03T14:15:37.198Z,3.43
2018-12-03T14:18:18.360Z,2.53
2018-12-03T14:20:49.960Z,3.07
2018-12-03T14:23:24.369Z,3.20
2018-12-03T14:25:53.584Z,2.37
2018-12-03T14:28:27.632Z,6.23
2018-12-03T14:30:58.089Z,3.57
2018-12-03T14:33:27.387Z,2.43
2018-12-03T14:35:56.663Z,2.40
2018-12-03T14:38:25.901Z,2.00
2018-12-03T14:40:55.513Z,2.33
2018-12-03T14:43:24.664Z,2.20
2018-12-03T14:45:54.642Z,2.10
2018-12-03T14:48:23.824Z,3.00
2018-12-03T14:50:53.064Z,1.90
2018-12-03T14:53:22.608Z,2.43
2018-12-03T14:55:51.817Z,1.67
2018-12-03T14:58:21.767Z,3.23
2018-12-03T15:00:50.983Z,4.50
2018-12-03T15:03:20.245Z,3.50
2018-12-03T15:05:49.805Z,6.27
2018-12-03T15:08:18.984Z,2.47
2018-12-03T15:10:48.140Z,3.40
2018-12-03T15:13:17.729Z,2.63
2018-12-03T15:15:46.954Z,3.90
2018-12-03T15:18:17.710Z,7.47
2018-12-03T15:20:51.108Z,6.37
2018-12-03T15:23:20.308Z,7.20
2018-12-03T15:25:49.520Z,7.33
2018-12-03T15:28:18.823Z,7.03
2018-12-03T15:30:48.044Z,5.73
2018-12-03T15:33:17.272Z,4.77
2018-12-03T15:35:46.872Z,4.10
2018-12-03T15:38:16.516Z,8.57
2018-12-03T15:40:46.028Z,4.93
2018-12-03T15:43:15.221Z,4.40
2018-12-03T15:45:44.424Z,8.60
2018-12-03T15:48:13.657Z,7.23
2018-12-03T15:50:42.841Z,7.83
2018-12-03T15:53:12.021Z,6.83
2018-12-03T15:55:42.115Z,2.90
2018-12-03T15:58:11.381Z,3.30
2018-12-03T16:00:40.577Z,3.90
2018-12-03T16:03:10.201Z,2.60
2018-12-03T16:05:39.494Z,2.53
2018-12-03T16:08:08.750Z,2.70
2018-12-03T16:10:38.081Z,3.30
2018-12-03T16:13:07.295Z,5.63
2018-12-03T16:15:36.488Z,9.23
2018-12-03T16:18:05.670Z,3.90
2018-12-03T16:20:34.860Z,6.80
2018-12-03T16:23:04.132Z,5.37
2018-12-03T16:25:34.189Z,3.20
2018-12-03T16:28:03.937Z,4.13
2018-12-03T16:30:33.085Z,6.30
2018-12-03T16:33:02.384Z,5.53
2018-12-03T16:35:31.920Z,3.93
2018-12-03T16:38:01.082Z,3.60
2018-12-03T16:40:30.335Z,5.90
2018-12-03T16:42:59.552Z,7.40
2018-12-03T16:45:28.700Z,5.40
2018-12-03T16:47:57.923Z,6.57
2018-12-03T16:50:27.504Z,6.73
2018-12-03T16:52:56.749Z,6.10
2018-12-03T16:55:26.013Z,4.03
2018-12-03T16:57:55.422Z,5.90
2018-12-03T17:00:24.601Z,4.20
2018-12-03T17:02:53.782Z,4.97
2018-12-03T17:05:22.994Z,7.40
2018-12-03T17:07:52.133Z,6.57
2018-12-03T17:10:22.153Z,6.50
2018-12-03T17:12:53.401Z,9.50
2018-12-03T17:15:23.254Z,8.97
2018-12-03T17:17:52.774Z,9.30
2018-12-03T17:20:38.620Z,10.37
2018-12-03T17:23:28.392Z,7.73
2018-12-03T17:25:57.728Z,8.10
2018-12-03T17:28:27.805Z,8.90
2018-12-03T17:30:57.012Z,7.23
2018-12-03T17:33:26.915Z,10.53
2018-12-03T17:35:56.618Z,10.50
2018-12-03T17:38:25.887Z,8.30
2018-12-03T17:40:55.513Z,11.17
2018-12-03T17:43:25.608Z,8.63
2018-12-03T17:45:56.435Z,13.30
2018-12-03T17:48:25.776Z,9.77
2018-12-03T17:50:55.956Z,6.73
2018-12-03T17:53:25.828Z,9.07
2018-12-03T17:55:54.960Z,8.27
2018-12-03T17:58:24.877Z,9.87
2018-12-03T18:00:54.734Z,9.20
2018-12-03T18:03:24.323Z,26.07
2018-12-03T18:05:53.777Z,24.27
2018-12-03T18:08:23.025Z,28.00
2018-12-03T18:10:52.238Z,32.23
2018-12-03T18:13:21.476Z,23.00
2018-12-03T18:15:50.845Z,11.83
2018-12-03T18:18:20.280Z,15.23
2018-12-03T18:20:49.922Z,14.90
2018-12-03T18:23:19.314Z,13.33
2018-12-03T18:25:49.060Z,12.90
2018-12-03T18:28:18.338Z,12.67
2018-12-03T18:30:47.627Z,13.87
2018-12-03T18:33:17.937Z,14.80
2018-12-03T18:35:47.719Z,8.87
2018-12-03T18:38:16.940Z,10.37
2018-12-03T18:43:57.570Z,6.87
2018-12-03T18:46:27.056Z,6.53
2018-12-03T18:49:04.753Z,3.27
2018-12-03T18:51:34.407Z,3.43
2018-12-03T18:54:03.620Z,4.60
2018-12-03T18:56:32.990Z,3.23
2018-12-03T18:59:06.444Z,2.30
2018-12-03T19:01:35.776Z,1.90
2018-12-03T19:04:05.536Z,3.20
2018-12-03T19:06:34.771Z,3.93
2018-12-03T19:09:04.199Z,4.30
2018-12-03T19:12:03.594Z,2.97
2018-12-03T19:14:32.808Z,2.43
2018-12-03T19:17:02.488Z,3.80
2018-12-03T19:19:31.824Z,3.43
2018-12-03T19:22:00.967Z,3.90
2018-12-03T19:24:31.310Z,3.13
2018-12-03T19:27:00.944Z,2.20
2018-12-03T19:29:30.239Z,2.60
2018-12-03T19:31:59.588Z,4.40
2018-12-03T19:34:29.266Z,1.83
2018-12-03T19:36:58.454Z,1.53
2018-12-03T19:39:27.605Z,4.67
2018-12-03T19:41:56.771Z,2.37
2018-12-03T19:44:26.650Z,1.70
2018-12-03T19:46:56.069Z,1.80
2018-12-03T19:49:25.425Z,3.87
2018-12-03T19:51:56.316Z,2.93
2018-12-03T19:54:25.721Z,1.73
2018-12-03T19:56:55.280Z,2.60
2018-12-03T19:59:28.404Z,1.70
2018-12-03T20:01:57.712Z,2.90
2018-12-03T20:04:32.551Z,1.50
2018-12-03T20:07:01.737Z,2.93
2018-12-03T20:09:31.019Z,2.80
2018-12-03T20:12:00.484Z,2.00
2018-12-03T20:14:29.705Z,2.37
2018-12-03T20:17:00.868Z,10.57
2018-12-03T20:19:30.047Z,2.67
2018-12-03T20:21:59.324Z,2.77
2018-12-03T20:24:29.179Z,3.20
2018-12-03T20:27:20.828Z,2.20
2018-12-03T20:30:33.204Z,6.10
2018-12-03T20:33:15.879Z,3.60
2018-12-03T20:36:01.208Z,4.30
2018-12-03T20:38:39.117Z,4.80
2018-12-03T20:41:13.032Z,5.43
2018-12-03T20:43:43.367Z,2.97
2018-12-03T20:46:19.899Z,2.70
2018-12-03T20:49:20.191Z,3.20
2018-12-03T20:51:52.010Z,1.60
2018-12-03T20:54:21.299Z,3.00
2018-12-03T20:56:50.551Z,2.33
2018-12-03T20:59:19.814Z,3.00
2018-12-03T21:01:50.504Z,2.07
2018-12-03T21:04:22.440Z,2.00
2018-12-03T21:06:52.641Z,8.37
2018-12-03T21:09:21.767Z,2.77
2018-12-03T21:11:51.050Z,9.80
2018-12-03T21:14:20.444Z,3.73
2018-12-03T21:16:49.943Z,2.20
2018-12-03T21:19:19.173Z,2.77
2018-12-03T21:21:49.379Z,1.90
2018-12-03T21:24:19.125Z,2.20
2018-12-03T21:26:48.336Z,4.83
2018-12-03T21:29:17.572Z,13.70
2018-12-03T21:31:47.137Z,2.50
2018-12-03T21:34:16.292Z,4.70
2018-12-03T21:36:46.675Z,3.03
2018-12-03T21:39:15.964Z,7.13
2018-12-03T21:41:45.247Z,3.83
2018-12-03T21:44:14.908Z,3.97
2018-12-03T21:46:44.100Z,5.13
2018-12-03T21:49:13.313Z,4.90
2018-12-03T21:51:43.237Z,3.00
2018-12-03T21:54:14.773Z,13.13
2018-12-03T21:56:44.033Z,10.90
2018-12-03T21:59:13.384Z,3.30
2018-12-03T22:01:42.566Z,4.23
2018-12-03T22:04:11.872Z,6.20
2018-12-03T22:06:41.149Z,4.30
2018-12-03T22:09:10.445Z,6.77
2018-12-03T22:11:40.041Z,6.20
2018-12-03T22:14:09.204Z,4.00
2018-12-03T22:16:39.116Z,4.50
2018-12-03T22:19:08.301Z,3.83
2018-12-03T22:21:38.668Z,4.77
2018-12-03T22:24:08.037Z,4.90
2018-12-03T22:26:37.976Z,2.27
2018-12-03T22:29:07.924Z,3.40
2018-12-03T22:31:37.840Z,2.30
2018-12-03T22:34:08.413Z,4.03
2018-12-03T22:36:37.732Z,2.40
2018-12-03T22:39:08.829Z,7.73
2018-12-03T22:41:38.440Z,4.90
2018-12-03T22:44:08.190Z,6.23
2018-12-03T22:46:37.602Z,5.00
2018-12-03T22:49:06.840Z,2.50
2018-12-03T22:51:36.078Z,12.53
2018-12-03T22:54:06.315Z,6.30
2018-12-03T22:56:36.392Z,8.10
2018-12-03T22:59:05.631Z,2.47
2018-12-03T23:01:34.828Z,3.20
2018-12-03T23:04:04.639Z,3.43
2018-12-03T23:06:33.900Z,3.13
2018-12-03T23:09:03.772Z,3.00
2018-12-03T23:11:33.627Z,3.40
2018-12-03T23:14:02.967Z,2.90
2018-12-03T23:16:32.921Z,7.50
2018-12-03T23:19:02.324Z,6.57
2018-12-03T23:21:31.968Z,3.57
2018-12-03T23:24:01.227Z,4.67
2018-12-03T23:26:30.380Z,8.33
2018-12-03T23:29:00.247Z,4.60
2018-12-03T23:31:29.456Z,4.70
2018-12-03T23:33:58.967Z,6.93
2018-12-03T23:36:28.184Z,8.37
2018-12-03T23:38:57.441Z,2.10
2018-12-03T23:41:26.739Z,18.33
2018-12-03T23:43:56.216Z,19.93
2018-12-03T23:46:26.048Z,5.63
2018-12-03T23:48:55.290Z,8.60
2018-12-03T23:51:25.180Z,3.30
2018-12-03T23:53:54.508Z,5.27
2018-12-03T23:56:24.384Z,7.67
2018-12-03T23:58:54.020Z,8.67
